Murfreesboro, Tennessee
Current Conditions -  °F | °C
As of 10:53 PM on Saturday 22 Nov 2014 (Local Time) from KBNA Reporting Station
Overcast Overcast  
Wind Chill: 55°   Ceiling: 3500
Heat Index: 55°   Visibility: 10mi
Dew Point: 37°   Wind: 8mph
Humidity: 51%   Direction: 150°SSE
Pressure: 30.08"   Gusts: NA
Location:  35.84°N, 86.39°W
Report Text: KBNA 230453Z 15007KT 10SM OVC035 13/03 A3008 RMK AO2 SLP183 T01280028
Loading
Personal Weather Stations






























Interactive Weather Map New forecast layout! Learn more

10-Day Weather Forecast

Advertisements
Track Severe Weather on mobile